PAJNPAHN

Guest
Details From PAJN - Juneau Intl
To PAHN - HAINES
Flight Number -
Tags generated
Created
Modified
Stats Distance 61 nm / 114 km
Max Altitude 700 ft / 213 m
Waypoints 3
Social Downloads 0
Likes 0
Share VATSIM

Download

Looking for another format? Having issues loading an existing format? Contact us
Advertisement - Login to hide

Notes

Basic altitude profile: - Ascent Rate: 500ft/min - Ascent Speed: 120kts - Cruise Altitude: 30ft - Cruise Speed: 160kts - Descent Rate: 500ft/min - Descent Speed: 140kts Options: - Use NATs: yes - Use PACOTS: yes - Use low airways: yes - Use high airways: yes

Route

PAJN HNS PAHN

ID Type Via Altitude Latitude Longitude Leg Dist Tot Dist Heading (true) Name
O PAJN APT - 0 ft / 0 m 58.35496˚ -134.57628˚ - 0 nm - Juneau Intl
HNS NDB - 700 ft / 213 m 59.21208˚ -135.43086˚ 57 nm 57 nm 333° / 332° HAINES NDB
O PAHN APT - 0 ft / 0 m 59.24383˚ -135.52354˚ 3 nm 61 nm 304° / 304° HAINES

Altitude Profile

Advertisement - Login to hide

PAJN

Details ICAO PAJN (JNU)
Name Juneau Intl
Region USA (Alaska)
Timezone America/Juneau (UTC-9.0)
Stats Elevation 21 ft / 6 m (AMSL)
Location 58.354964° -134.576278°
Runways 1
Magnetic Variation 19.151° E

METAR

PAJN 110453Z 12013G22KT 9SM -RA FEW001 OVC045 08/05 A2988

Decode

TAF

TAF PAJN 102338Z 1100/1124 08008KT P6SM SCT040 OVC140 FM110300 11015G22KT P6SM -RA FEW008 BKN040 OVC070 WS020/12040KT FM110600 11021G32KT 5SM RA BR FEW007 BKN025 OVC040 WS020/14045KT FM112000 11012KT P6SM -RA FEW015 BKN035 OVC040

Decode

Departure Runways

ID Width Length Bearing (true) Bearing (mag) Surface Threshold Offset Overrun Length
08 150 ft / 46 m 8,430 ft / 2,570 m 104.87° 85.72° Asphalt 0 ft / 0 m 450 ft / 137 m
26 150 ft / 46 m 8,430 ft / 2,570 m 284.90° 265.75° Asphalt 0 ft / 0 m 225 ft / 69 m

PAHN

Details ICAO PAHN (HNS)
Name HAINES
Region USA (Alaska)
Timezone Unknown (UTC+0.0)
Stats Elevation 15 ft / 5 m (AMSL)
Location 59.243829° -135.523538°
Runways 1
Magnetic Variation 19.276° E

METAR

PAHN 110536Z AUTO 31003KT 4SM -RA BR SCT008 SCT012 OVC033 04/04 A2987 RMK AO2 P0007 T00440039 TSNO

Decode

TAF

TAF PAHN 102338Z 1100/1124 08005KT P6SM SCT025 BKN130 FM110400 VRB05KT 6SM -RA BR BKN015 OVC040 FM110700 08015G25KT 4SM RA BR BKN012 OVC020 WS020/13035KT FM112100 08015KT 6SM -RA BR SCT012 OVC020 AMD LTD TO CLD VIS AND WIND

Decode

Destination Runways

ID Width Length Bearing (true) Bearing (mag) Surface Threshold Offset Overrun Length
08 100 ft / 30 m 3,988 ft / 1,216 m 110.17° 90.89° Asphalt 0 ft / 0 m 300 ft / 91 m
26 100 ft / 30 m 3,988 ft / 1,216 m 290.19° 270.91° Asphalt 1,000 ft / 305 m 300 ft / 91 m

Popular Alternatives